Accueil
METAR-TAF:

METAR-TAF

Aéroports :

Coventry, Angleterre

latitude: 52-22N, longitude: 001-29W, altitude: 82 m

Observation

Le bulletin a été fait il y a 18 minutes, à 10:20 UTC
Vent 10 kt de ouest/nord-ouest, variant entre ouest et nord-ouest
Température 14°C
Humidité 88%
Pression 994 hPa
Visibilité 10 km ou plus
Quelques nuages à une hauteur de 1000 ft
Nuages fragmentés à une hauteur de 2000 ft
bruine

METAR: EGBE 291020Z 29010KT 260V320 9999 DZ FEW010 BKN020 14/12 Q0994

Heure: 11:38 (10:38 UTC)

Prévision

Le bulletin a été fait il y a 20 heures et 40 minutes, à 13:58 UTC
Prévision valable du 28 à 15 UTC au 28 à 24 UTC
Vent 7 kt de nord
Visibilité 10 km ou plus
Nuages fragmentés à une hauteur de 1000 ft
Probabilité 30% :
Temporairement
du 28 à 15 UTC au 28 à 24 UTC
Nuages fragmentés à une hauteur de 800 ft

TAF: EGBE 281358Z 2815/2824 01007KT 9999 BKN010 PROB30 TEMPO 2815/2824 BKN008

Observations et prévisions météorologiques de plus de 4000 aéroports (messages METAR et TAF).

Les stations disponibles sont représentées par des disques jaunes et rouges sur la carte.

Passer la souris dessus pour voir le nom de la station.

Cliquer dessus pour voir les observations et prévisions météorologiques.

Pour changer de carte: cliquez sur les boutons verts avec une croix noire pour zoomer, sur le bouton vert avec un tiret pour effectuer un zoom arrière, ou sur les flèches vertes pour les cartes adjacentes.


METAR-TAF: